sensor_id;sensor_type;location;lat;lon;timestamp;P1;durP1;ratioP1;P2;durP2;ratioP2
23140;SDS011;11739;54.750;9.124;2023-06-19T00:00:12;7.35;;;6.70;;
23140;SDS011;11739;54.750;9.124;2023-06-19T00:02:38;7.78;;;6.53;;
23140;SDS011;11739;54.750;9.124;2023-06-19T00:05:04;7.05;;;6.40;;
23140;SDS011;11739;54.750;9.124;2023-06-19T00:07:29;7.15;;;6.57;;
23140;SDS011;11739;54.750;9.124;2023-06-19T00:09:54;7.13;;;6.50;;
23140;SDS011;11739;54.750;9.124;2023-06-19T00:12:20;6.72;;;6.13;;
23140;SDS011;11739;54.750;9.124;2023-06-19T00:14:45;6.28;;;5.68;;
23140;SDS011;11739;54.750;9.124;2023-06-19T00:17:10;7.05;;;6.38;;
23140;SDS011;11739;54.750;9.124;2023-06-19T00:19:36;6.45;;;5.95;;
23140;SDS011;11739;54.750;9.124;2023-06-19T00:22:02;7.35;;;6.65;;
23140;SDS011;11739;54.750;9.124;2023-06-19T00:24:28;6.38;;;5.88;;
23140;SDS011;11739;54.750;9.124;2023-06-19T00:26:53;6.88;;;6.18;;
23140;SDS011;11739;54.750;9.124;2023-06-19T00:29:19;7.20;;;6.50;;
23140;SDS011;11739;54.750;9.124;2023-06-19T00:31:44;7.28;;;6.45;;
23140;SDS011;11739;54.750;9.124;2023-06-19T00:34:09;6.60;;;6.00;;
23140;SDS011;11739;54.750;9.124;2023-06-19T00:36:35;6.80;;;6.20;;
23140;SDS011;11739;54.750;9.124;2023-06-19T00:39:00;7.03;;;6.38;;
23140;SDS011;11739;54.750;9.124;2023-06-19T00:41:26;7.07;;;6.32;;
23140;SDS011;11739;54.750;9.124;2023-06-19T00:43:52;6.95;;;6.35;;
23140;SDS011;11739;54.750;9.124;2023-06-19T00:46:17;6.75;;;6.25;;
23140;SDS011;11739;54.750;9.124;2023-06-19T00:48:42;7.15;;;6.47;;
23140;SDS011;11739;54.750;9.124;2023-06-19T00:51:08;6.30;;;5.78;;
23140;SDS011;11739;54.750;9.124;2023-06-19T00:53:34;7.60;;;6.90;;
23140;SDS011;11739;54.750;9.124;2023-06-19T00:56:00;6.97;;;6.20;;
23140;SDS011;11739;54.750;9.124;2023-06-19T00:58:26;6.60;;;5.57;;
23140;SDS011;11739;54.750;9.124;2023-06-19T01:00:52;7.15;;;6.47;;
23140;SDS011;11739;54.750;9.124;2023-06-19T01:03:17;6.43;;;5.82;;
23140;SDS011;11739;54.750;9.124;2023-06-19T01:05:43;6.65;;;6.15;;
23140;SDS011;11739;54.750;9.124;2023-06-19T01:09:10;6.65;;;6.15;;
23140;SDS011;11739;54.750;9.124;2023-06-19T01:11:08;6.43;;;5.93;;
23140;SDS011;11739;54.750;9.124;2023-06-19T01:13:35;7.28;;;6.45;;
23140;SDS011;11739;54.750;9.124;2023-06-19T01:16:09;6.45;;;5.95;;
23140;SDS011;11739;54.750;9.124;2023-06-19T01:18:35;6.70;;;6.10;;
23140;SDS011;11739;54.750;9.124;2023-06-19T01:21:10;6.50;;;6.00;;
23140;SDS011;11739;54.750;9.124;2023-06-19T01:23:40;6.75;;;6.10;;
23140;SDS011;11739;54.750;9.124;2023-06-19T01:26:05;7.05;;;6.25;;
23140;SDS011;11739;54.750;9.124;2023-06-19T01:28:31;6.53;;;6.00;;
23140;SDS011;11739;54.750;9.124;2023-06-19T01:30:56;6.40;;;5.90;;
23140;SDS011;11739;54.750;9.124;2023-06-19T01:33:25;6.32;;;5.82;;
23140;SDS011;11739;54.750;9.124;2023-06-19T01:35:51;6.70;;;6.20;;
23140;SDS011;11739;54.750;9.124;2023-06-19T01:38:17;6.45;;;5.95;;
23140;SDS011;11739;54.750;9.124;2023-06-19T01:40:44;6.53;;;6.03;;
23140;SDS011;11739;54.750;9.124;2023-06-19T01:43:11;6.90;;;6.30;;
23140;SDS011;11739;54.750;9.124;2023-06-19T01:45:36;6.40;;;5.90;;
23140;SDS011;11739;54.750;9.124;2023-06-19T01:48:02;5.85;;;5.35;;
23140;SDS011;11739;54.750;9.124;2023-06-19T01:50:27;5.70;;;5.30;;
23140;SDS011;11739;54.750;9.124;2023-06-19T01:52:52;6.25;;;5.75;;
23140;SDS011;11739;54.750;9.124;2023-06-19T01:55:18;6.20;;;5.70;;
23140;SDS011;11739;54.750;9.124;2023-06-19T01:57:43;6.32;;;5.82;;
23140;SDS011;11739;54.750;9.124;2023-06-19T02:00:08;6.40;;;5.65;;
23140;SDS011;11739;54.750;9.124;2023-06-19T02:02:34;6.35;;;5.60;;
23140;SDS011;11739;54.750;9.124;2023-06-19T02:04:59;6.40;;;5.90;;
23140;SDS011;11739;54.750;9.124;2023-06-19T02:07:24;5.93;;;5.47;;
23140;SDS011;11739;54.750;9.124;2023-06-19T02:09:50;6.25;;;5.75;;
23140;SDS011;11739;54.750;9.124;2023-06-19T02:12:15;6.60;;;5.50;;
23140;SDS011;11739;54.750;9.124;2023-06-19T02:14:40;6.05;;;5.55;;
23140;SDS011;11739;54.750;9.124;2023-06-19T02:17:06;6.22;;;5.72;;
23140;SDS011;11739;54.750;9.124;2023-06-19T02:19:31;5.90;;;5.40;;
23140;SDS011;11739;54.750;9.124;2023-06-19T02:21:56;6.25;;;5.75;;
23140;SDS011;11739;54.750;9.124;2023-06-19T02:24:21;6.18;;;5.70;;
23140;SDS011;11739;54.750;9.124;2023-06-19T02:26:47;6.55;;;5.95;;
23140;SDS011;11739;54.750;9.124;2023-06-19T02:29:12;6.40;;;5.80;;
23140;SDS011;11739;54.750;9.124;2023-06-19T02:31:37;6.88;;;6.20;;
23140;SDS011;11739;54.750;9.124;2023-06-19T02:34:03;6.00;;;5.50;;
23140;SDS011;11739;54.750;9.124;2023-06-19T02:36:28;7.47;;;6.00;;
23140;SDS011;11739;54.750;9.124;2023-06-19T02:38:53;6.25;;;5.75;;
23140;SDS011;11739;54.750;9.124;2023-06-19T02:41:18;5.88;;;5.43;;
23140;SDS011;11739;54.750;9.124;2023-06-19T02:43:44;6.20;;;5.70;;
23140;SDS011;11739;54.750;9.124;2023-06-19T02:46:09;6.28;;;5.75;;
23140;SDS011;11739;54.750;9.124;2023-06-19T02:48:35;6.22;;;5.63;;
23140;SDS011;11739;54.750;9.124;2023-06-19T02:51:00;5.70;;;5.28;;
23140;SDS011;11739;54.750;9.124;2023-06-19T02:53:25;5.80;;;5.30;;
23140;SDS011;11739;54.750;9.124;2023-06-19T02:55:51;5.63;;;5.22;;
23140;SDS011;11739;54.750;9.124;2023-06-19T02:58:16;6.03;;;5.57;;
23140;SDS011;11739;54.750;9.124;2023-06-19T03:00:41;6.28;;;5.78;;
23140;SDS011;11739;54.750;9.124;2023-06-19T03:03:07;6.43;;;5.82;;
23140;SDS011;11739;54.750;9.124;2023-06-19T03:05:32;5.78;;;5.38;;
23140;SDS011;11739;54.750;9.124;2023-06-19T03:07:57;6.10;;;5.60;;
23140;SDS011;11739;54.750;9.124;2023-06-19T03:10:23;5.95;;;5.45;;
23140;SDS011;11739;54.750;9.124;2023-06-19T03:12:48;5.72;;;5.32;;
23140;SDS011;11739;54.750;9.124;2023-06-19T03:15:13;6.22;;;5.72;;
23140;SDS011;11739;54.750;9.124;2023-06-19T03:17:39;6.18;;;5.68;;
23140;SDS011;11739;54.750;9.124;2023-06-19T03:20:04;5.65;;;5.22;;
23140;SDS011;11739;54.750;9.124;2023-06-19T03:22:30;6.07;;;5.57;;
23140;SDS011;11739;54.750;9.124;2023-06-19T03:24:55;6.38;;;5.78;;
23140;SDS011;11739;54.750;9.124;2023-06-19T03:27:20;5.88;;;5.38;;
23140;SDS011;11739;54.750;9.124;2023-06-19T03:29:46;5.88;;;5.47;;
23140;SDS011;11739;54.750;9.124;2023-06-19T03:32:11;5.90;;;5.40;;
23140;SDS011;11739;54.750;9.124;2023-06-19T03:34:36;6.47;;;5.97;;
23140;SDS011;11739;54.750;9.124;2023-06-19T03:37:01;6.32;;;5.50;;
23140;SDS011;11739;54.750;9.124;2023-06-19T03:39:27;6.00;;;5.50;;
23140;SDS011;11739;54.750;9.124;2023-06-19T03:41:52;6.10;;;5.35;;
23140;SDS011;11739;54.750;9.124;2023-06-19T03:44:17;5.70;;;5.20;;
23140;SDS011;11739;54.750;9.124;2023-06-19T03:46:43;6.43;;;5.80;;
23140;SDS011;11739;54.750;9.124;2023-06-19T03:49:08;6.25;;;5.70;;
23140;SDS011;11739;54.750;9.124;2023-06-19T03:51:33;6.13;;;5.72;;
23140;SDS011;11739;54.750;9.124;2023-06-19T03:53:59;6.13;;;5.63;;
23140;SDS011;11739;54.750;9.124;2023-06-19T03:56:24;5.88;;;5.30;;
23140;SDS011;11739;54.750;9.124;2023-06-19T03:58:49;5.60;;;5.20;;
23140;SDS011;11739;54.750;9.124;2023-06-19T04:01:15;5.65;;;5.25;;
23140;SDS011;11739;54.750;9.124;2023-06-19T04:03:40;5.72;;;5.32;;
23140;SDS011;11739;54.750;9.124;2023-06-19T04:06:05;6.07;;;5.57;;
23140;SDS011;11739;54.750;9.124;2023-06-19T04:08:30;6.55;;;6.00;;
23140;SDS011;11739;54.750;9.124;2023-06-19T04:10:56;6.10;;;5.57;;
23140;SDS011;11739;54.750;9.124;2023-06-19T04:13:21;5.95;;;5.45;;
23140;SDS011;11739;54.750;9.124;2023-06-19T04:15:46;5.57;;;5.18;;
23140;SDS011;11739;54.750;9.124;2023-06-19T04:18:12;5.50;;;5.07;;
23140;SDS011;11739;54.750;9.124;2023-06-19T04:20:37;5.65;;;5.25;;
23140;SDS011;11739;54.750;9.124;2023-06-19T04:23:02;5.75;;;5.35;;
23140;SDS011;11739;54.750;9.124;2023-06-19T04:25:28;5.70;;;5.20;;
23140;SDS011;11739;54.750;9.124;2023-06-19T04:27:53;5.65;;;5.22;;
23140;SDS011;11739;54.750;9.124;2023-06-19T04:30:18;5.82;;;5.22;;
23140;SDS011;11739;54.750;9.124;2023-06-19T04:32:44;6.07;;;5.57;;
23140;SDS011;11739;54.750;9.124;2023-06-19T04:35:09;5.60;;;5.07;;
23140;SDS011;11739;54.750;9.124;2023-06-19T04:37:34;7.05;;;5.43;;
23140;SDS011;11739;54.750;9.124;2023-06-19T04:40:00;6.53;;;5.43;;
23140;SDS011;11739;54.750;9.124;2023-06-19T04:42:25;5.72;;;5.18;;
23140;SDS011;11739;54.750;9.124;2023-06-19T04:44:51;5.82;;;5.32;;
23140;SDS011;11739;54.750;9.124;2023-06-19T04:47:17;5.60;;;5.10;;
23140;SDS011;11739;54.750;9.124;2023-06-19T04:49:44;5.50;;;5.10;;
23140;SDS011;11739;54.750;9.124;2023-06-19T04:52:09;6.22;;;5.72;;
23140;SDS011;11739;54.750;9.124;2023-06-19T04:54:34;5.50;;;5.10;;
23140;SDS011;11739;54.750;9.124;2023-06-19T04:57:00;5.47;;;5.05;;
23140;SDS011;11739;54.750;9.124;2023-06-19T04:59:26;6.05;;;5.55;;
23140;SDS011;11739;54.750;9.124;2023-06-19T05:01:51;5.30;;;4.88;;
23140;SDS011;11739;54.750;9.124;2023-06-19T05:04:16;5.45;;;5.05;;
23140;SDS011;11739;54.750;9.124;2023-06-19T05:06:41;5.45;;;4.95;;
23140;SDS011;11739;54.750;9.124;2023-06-19T05:09:07;5.90;;;5.28;;
23140;SDS011;11739;54.750;9.124;2023-06-19T05:11:32;5.75;;;5.35;;
23140;SDS011;11739;54.750;9.124;2023-06-19T05:13:57;5.28;;;4.88;;
23140;SDS011;11739;54.750;9.124;2023-06-19T05:16:23;6.00;;;5.50;;
23140;SDS011;11739;54.750;9.124;2023-06-19T05:18:48;6.50;;;4.93;;
23140;SDS011;11739;54.750;9.124;2023-06-19T05:21:13;5.47;;;4.97;;
23140;SDS011;11739;54.750;9.124;2023-06-19T05:23:39;5.43;;;4.97;;
23140;SDS011;11739;54.750;9.124;2023-06-19T05:26:04;6.35;;;5.85;;
23140;SDS011;11739;54.750;9.124;2023-06-19T05:28:30;5.78;;;5.28;;
23140;SDS011;11739;54.750;9.124;2023-06-19T05:30:55;6.00;;;5.50;;
23140;SDS011;11739;54.750;9.124;2023-06-19T05:33:20;5.65;;;5.07;;
23140;SDS011;11739;54.750;9.124;2023-06-19T05:35:46;5.70;;;5.13;;
23140;SDS011;11739;54.750;9.124;2023-06-19T05:38:11;5.75;;;5.25;;
23140;SDS011;11739;54.750;9.124;2023-06-19T05:40:36;5.65;;;5.25;;
23140;SDS011;11739;54.750;9.124;2023-06-19T05:43:01;5.18;;;4.78;;
23140;SDS011;11739;54.750;9.124;2023-06-19T05:45:27;5.60;;;5.10;;
23140;SDS011;11739;54.750;9.124;2023-06-19T05:47:52;5.40;;;4.90;;
23140;SDS011;11739;54.750;9.124;2023-06-19T05:50:17;5.50;;;5.10;;
23140;SDS011;11739;54.750;9.124;2023-06-19T05:52:43;5.57;;;5.10;;
23140;SDS011;11739;54.750;9.124;2023-06-19T05:55:09;5.65;;;5.25;;
23140;SDS011;11739;54.750;9.124;2023-06-19T05:57:35;5.70;;;5.20;;
23140;SDS011;11739;54.750;9.124;2023-06-19T06:00:00;5.93;;;5.43;;
23140;SDS011;11739;54.750;9.124;2023-06-19T06:02:25;6.32;;;5.22;;
23140;SDS011;11739;54.750;9.124;2023-06-19T06:04:51;6.25;;;5.65;;
23140;SDS011;11739;54.750;9.124;2023-06-19T06:07:16;6.70;;;5.40;;
23140;SDS011;11739;54.750;9.124;2023-06-19T06:09:41;5.93;;;5.47;;
23140;SDS011;11739;54.750;9.124;2023-06-19T06:12:07;7.15;;;5.97;;
23140;SDS011;11739;54.750;9.124;2023-06-19T06:14:32;5.78;;;5.18;;
23140;SDS011;11739;54.750;9.124;2023-06-19T06:16:58;5.80;;;5.20;;
23140;SDS011;11739;54.750;9.124;2023-06-19T06:19:23;5.90;;;5.45;;
23140;SDS011;11739;54.750;9.124;2023-06-19T06:21:49;6.93;;;5.40;;
23140;SDS011;11739;54.750;9.124;2023-06-19T06:24:14;5.72;;;5.22;;
23140;SDS011;11739;54.750;9.124;2023-06-19T06:26:39;5.38;;;4.97;;
23140;SDS011;11739;54.750;9.124;2023-06-19T06:29:05;6.00;;;5.40;;
23140;SDS011;11739;54.750;9.124;2023-06-19T06:31:30;7.45;;;5.32;;
23140;SDS011;11739;54.750;9.124;2023-06-19T06:33:55;5.80;;;5.30;;
23140;SDS011;11739;54.750;9.124;2023-06-19T06:36:21;5.93;;;5.43;;
23140;SDS011;11739;54.750;9.124;2023-06-19T06:38:46;8.68;;;5.60;;
23140;SDS011;11739;54.750;9.124;2023-06-19T06:41:11;6.47;;;5.28;;
23140;SDS011;11739;54.750;9.124;2023-06-19T06:43:37;6.03;;;5.40;;
23140;SDS011;11739;54.750;9.124;2023-06-19T06:46:02;6.00;;;5.50;;
23140;SDS011;11739;54.750;9.124;2023-06-19T06:48:27;5.40;;;5.00;;
23140;SDS011;11739;54.750;9.124;2023-06-19T06:50:53;6.43;;;5.88;;
23140;SDS011;11739;54.750;9.124;2023-06-19T06:53:18;6.40;;;5.75;;
23140;SDS011;11739;54.750;9.124;2023-06-19T06:55:44;5.97;;;5.40;;
23140;SDS011;11739;54.750;9.124;2023-06-19T06:58:09;6.22;;;5.72;;
23140;SDS011;11739;54.750;9.124;2023-06-19T07:00:34;6.50;;;5.80;;
23140;SDS011;11739;54.750;9.124;2023-06-19T07:02:59;6.53;;;5.97;;
23140;SDS011;11739;54.750;9.124;2023-06-19T07:05:25;6.40;;;5.60;;
23140;SDS011;11739;54.750;9.124;2023-06-19T07:07:50;5.40;;;5.00;;
23140;SDS011;11739;54.750;9.124;2023-06-19T07:10:15;6.13;;;5.63;;
23140;SDS011;11739;54.750;9.124;2023-06-19T07:12:45;6.45;;;5.80;;
23140;SDS011;11739;54.750;9.124;2023-06-19T07:15:10;6.93;;;5.88;;
23140;SDS011;11739;54.750;9.124;2023-06-19T07:17:36;5.85;;;5.35;;
23140;SDS011;11739;54.750;9.124;2023-06-19T07:20:01;6.38;;;5.78;;
23140;SDS011;11739;54.750;9.124;2023-06-19T07:22:27;6.13;;;5.63;;
23140;SDS011;11739;54.750;9.124;2023-06-19T07:24:52;5.70;;;5.30;;
23140;SDS011;11739;54.750;9.124;2023-06-19T07:27:17;7.05;;;5.40;;
23140;SDS011;11739;54.750;9.124;2023-06-19T07:29:43;6.15;;;5.55;;
23140;SDS011;11739;54.750;9.124;2023-06-19T07:32:09;5.55;;;5.15;;
23140;SDS011;11739;54.750;9.124;2023-06-19T07:34:34;5.90;;;5.40;;
23140;SDS011;11739;54.750;9.124;2023-06-19T07:36:59;6.43;;;5.93;;
23140;SDS011;11739;54.750;9.124;2023-06-19T07:39:25;5.85;;;5.25;;
23140;SDS011;11739;54.750;9.124;2023-06-19T07:41:50;6.00;;;5.50;;
23140;SDS011;11739;54.750;9.124;2023-06-19T07:44:15;6.43;;;5.65;;
23140;SDS011;11739;54.750;9.124;2023-06-19T07:46:40;5.75;;;5.25;;
23140;SDS011;11739;54.750;9.124;2023-06-19T07:49:06;5.43;;;5.03;;
23140;SDS011;11739;54.750;9.124;2023-06-19T07:51:31;6.68;;;5.20;;
23140;SDS011;11739;54.750;9.124;2023-06-19T07:53:56;6.70;;;6.10;;
23140;SDS011;11739;54.750;9.124;2023-06-19T07:56:22;5.70;;;5.30;;
23140;SDS011;11739;54.750;9.124;2023-06-19T07:58:47;6.38;;;5.50;;
23140;SDS011;11739;54.750;9.124;2023-06-19T08:01:12;6.13;;;5.63;;
23140;SDS011;11739;54.750;9.124;2023-06-19T08:03:38;6.07;;;5.57;;
23140;SDS011;11739;54.750;9.124;2023-06-19T08:06:03;6.38;;;5.88;;
23140;SDS011;11739;54.750;9.124;2023-06-19T08:08:28;6.10;;;5.60;;
23140;SDS011;11739;54.750;9.124;2023-06-19T08:10:53;5.85;;;5.35;;
23140;SDS011;11739;54.750;9.124;2023-06-19T08:13:19;5.82;;;5.32;;
23140;SDS011;11739;54.750;9.124;2023-06-19T08:15:44;6.35;;;5.70;;
23140;SDS011;11739;54.750;9.124;2023-06-19T08:18:09;5.90;;;5.50;;
23140;SDS011;11739;54.750;9.124;2023-06-19T08:20:35;5.90;;;5.40;;
23140;SDS011;11739;54.750;9.124;2023-06-19T08:23:00;5.90;;;5.40;;
23140;SDS011;11739;54.750;9.124;2023-06-19T08:25:25;6.05;;;5.47;;
23140;SDS011;11739;54.750;9.124;2023-06-19T08:27:51;6.40;;;5.55;;
23140;SDS011;11739;54.750;9.124;2023-06-19T08:30:16;6.10;;;5.60;;
23140;SDS011;11739;54.750;9.124;2023-06-19T08:32:44;6.35;;;5.85;;
23140;SDS011;11739;54.750;9.124;2023-06-19T08:35:09;6.57;;;5.90;;
23140;SDS011;11739;54.750;9.124;2023-06-19T08:37:34;6.18;;;5.68;;
23140;SDS011;11739;54.750;9.124;2023-06-19T08:39:59;5.90;;;5.50;;
23140;SDS011;11739;54.750;9.124;2023-06-19T08:42:25;6.25;;;5.75;;
23140;SDS011;11739;54.750;9.124;2023-06-19T08:44:50;6.68;;;6.07;;
23140;SDS011;11739;54.750;9.124;2023-06-19T08:47:15;6.75;;;5.88;;
23140;SDS011;11739;54.750;9.124;2023-06-19T08:49:41;6.70;;;6.10;;
23140;SDS011;11739;54.750;9.124;2023-06-19T08:52:06;7.00;;;6.40;;
23140;SDS011;11739;54.750;9.124;2023-06-19T08:54:32;5.90;;;5.50;;
23140;SDS011;11739;54.750;9.124;2023-06-19T08:57:00;6.28;;;5.78;;
23140;SDS011;11739;54.750;9.124;2023-06-19T08:59:26;6.40;;;5.90;;
23140;SDS011;11739;54.750;9.124;2023-06-19T09:01:52;6.40;;;5.90;;
23140;SDS011;11739;54.750;9.124;2023-06-19T09:04:20;7.65;;;7.00;;
23140;SDS011;11739;54.750;9.124;2023-06-19T09:06:53;6.47;;;5.97;;
23140;SDS011;11739;54.750;9.124;2023-06-19T09:12:01;6.55;;;5.95;;
23140;SDS011;11739;54.750;9.124;2023-06-19T09:14:31;6.50;;;6.00;;
23140;SDS011;11739;54.750;9.124;2023-06-19T09:17:04;6.38;;;5.78;;
23140;SDS011;11739;54.750;9.124;2023-06-19T09:19:30;6.65;;;6.15;;
23140;SDS011;11739;54.750;9.124;2023-06-19T09:21:59;7.53;;;6.80;;
23140;SDS011;11739;54.750;9.124;2023-06-19T09:24:39;6.95;;;6.25;;
23140;SDS011;11739;54.750;9.124;2023-06-19T09:27:14;6.85;;;6.35;;
23140;SDS011;11739;54.750;9.124;2023-06-19T09:29:44;6.57;;;6.05;;
23140;SDS011;11739;54.750;9.124;2023-06-19T09:32:14;7.05;;;6.28;;
23140;SDS011;11739;54.750;9.124;2023-06-19T09:34:39;6.90;;;6.30;;
23140;SDS011;11739;54.750;9.124;2023-06-19T09:37:05;6.47;;;5.85;;
23140;SDS011;11739;54.750;9.124;2023-06-19T09:39:30;7.03;;;6.50;;
23140;SDS011;11739;54.750;9.124;2023-06-19T09:41:56;6.72;;;6.18;;
23140;SDS011;11739;54.750;9.124;2023-06-19T09:44:22;7.20;;;6.60;;
23140;SDS011;11739;54.750;9.124;2023-06-19T09:46:47;6.60;;;6.10;;
23140;SDS011;11739;54.750;9.124;2023-06-19T09:49:13;6.57;;;6.07;;
23140;SDS011;11739;54.750;9.124;2023-06-19T09:51:41;6.68;;;6.03;;
23140;SDS011;11739;54.750;9.124;2023-06-19T09:54:06;7.20;;;6.60;;
23140;SDS011;11739;54.750;9.124;2023-06-19T09:56:32;7.10;;;6.10;;
23140;SDS011;11739;54.750;9.124;2023-06-19T09:58:59;7.00;;;5.78;;
23140;SDS011;11739;54.750;9.124;2023-06-19T10:01:24;6.03;;;5.47;;
23140;SDS011;11739;54.750;9.124;2023-06-19T10:04:00;5.88;;;5.38;;
23140;SDS011;11739;54.750;9.124;2023-06-19T10:06:27;6.80;;;6.10;;
23140;SDS011;11739;54.750;9.124;2023-06-19T10:08:52;6.60;;;6.03;;
23140;SDS011;11739;54.750;9.124;2023-06-19T10:11:17;6.90;;;6.18;;
23140;SDS011;11739;54.750;9.124;2023-06-19T10:13:43;6.20;;;5.70;;
23140;SDS011;11739;54.750;9.124;2023-06-19T10:16:19;6.10;;;5.60;;
23140;SDS011;11739;54.750;9.124;2023-06-19T10:18:46;6.88;;;6.38;;
23140;SDS011;11739;54.750;9.124;2023-06-19T10:21:20;6.60;;;6.10;;
23140;SDS011;11739;54.750;9.124;2023-06-19T10:23:56;6.03;;;5.60;;
23140;SDS011;11739;54.750;9.124;2023-06-19T10:26:32;6.88;;;6.38;;
23140;SDS011;11739;54.750;9.124;2023-06-19T10:28:58;6.72;;;6.20;;
23140;SDS011;11739;54.750;9.124;2023-06-19T10:31:23;6.18;;;5.78;;
23140;SDS011;11739;54.750;9.124;2023-06-19T10:33:49;6.30;;;5.80;;
23140;SDS011;11739;54.750;9.124;2023-06-19T10:36:18;7.13;;;6.47;;
23140;SDS011;11739;54.750;9.124;2023-06-19T10:38:45;7.20;;;6.60;;
23140;SDS011;11739;54.750;9.124;2023-06-19T10:41:17;6.15;;;5.75;;
23140;SDS011;11739;54.750;9.124;2023-06-19T10:43:57;6.47;;;5.90;;
23140;SDS011;11739;54.750;9.124;2023-06-19T10:46:23;9.13;;;6.93;;
23140;SDS011;11739;54.750;9.124;2023-06-19T10:48:49;8.13;;;6.43;;
23140;SDS011;11739;54.750;9.124;2023-06-19T10:51:21;6.65;;;6.15;;
23140;SDS011;11739;54.750;9.124;2023-06-19T10:53:46;6.47;;;6.03;;
23140;SDS011;11739;54.750;9.124;2023-06-19T10:56:11;7.05;;;6.45;;
23140;SDS011;11739;54.750;9.124;2023-06-19T10:58:37;6.43;;;5.93;;
23140;SDS011;11739;54.750;9.124;2023-06-19T11:01:02;6.88;;;6.38;;
23140;SDS011;11739;54.750;9.124;2023-06-19T11:03:28;6.35;;;5.78;;
23140;SDS011;11739;54.750;9.124;2023-06-19T11:05:53;6.68;;;6.18;;
23140;SDS011;11739;54.750;9.124;2023-06-19T11:08:19;6.70;;;6.20;;
23140;SDS011;11739;54.750;9.124;2023-06-19T11:10:45;6.93;;;6.43;;
23140;SDS011;11739;54.750;9.124;2023-06-19T11:13:14;6.50;;;5.90;;
23140;SDS011;11739;54.750;9.124;2023-06-19T11:15:40;6.50;;;6.00;;
23140;SDS011;11739;54.750;9.124;2023-06-19T11:18:05;6.93;;;6.32;;
23140;SDS011;11739;54.750;9.124;2023-06-19T11:20:31;7.45;;;6.50;;
23140;SDS011;11739;54.750;9.124;2023-06-19T11:25:40;8.77;;;6.63;;
23140;SDS011;11739;54.750;9.124;2023-06-19T11:28:16;7.25;;;6.65;;
23140;SDS011;11739;54.750;9.124;2023-06-19T11:30:41;7.43;;;6.82;;
23140;SDS011;11739;54.750;9.124;2023-06-19T11:33:19;7.88;;;6.38;;
23140;SDS011;11739;54.750;9.124;2023-06-19T11:35:49;6.65;;;6.15;;
23140;SDS011;11739;54.750;9.124;2023-06-19T11:38:18;7.57;;;6.82;;
23140;SDS011;11739;54.750;9.124;2023-06-19T11:40:47;7.07;;;6.47;;
23140;SDS011;11739;54.750;9.124;2023-06-19T11:43:22;7.50;;;6.85;;
23140;SDS011;11739;54.750;9.124;2023-06-19T11:46:01;7.47;;;6.90;;
23140;SDS011;11739;54.750;9.124;2023-06-19T11:48:27;7.22;;;6.72;;
23140;SDS011;11739;54.750;9.124;2023-06-19T11:50:53;7.38;;;6.78;;
23140;SDS011;11739;54.750;9.124;2023-06-19T11:53:22;7.10;;;6.60;;
23140;SDS011;11739;54.750;9.124;2023-06-19T11:55:48;7.25;;;6.50;;
23140;SDS011;11739;54.750;9.124;2023-06-19T11:58:14;7.63;;;6.93;;
23140;SDS011;11739;54.750;9.124;2023-06-19T12:00:39;7.43;;;6.82;;
23140;SDS011;11739;54.750;9.124;2023-06-19T12:03:04;7.57;;;6.97;;
23140;SDS011;11739;54.750;9.124;2023-06-19T12:05:29;7.75;;;6.97;;
23140;SDS011;11739;54.750;9.124;2023-06-19T12:07:55;8.20;;;7.40;;
23140;SDS011;11739;54.750;9.124;2023-06-19T12:10:20;9.02;;;8.18;;
23140;SDS011;11739;54.750;9.124;2023-06-19T12:12:46;8.93;;;8.13;;
23140;SDS011;11739;54.750;9.124;2023-06-19T12:15:11;9.07;;;8.18;;
23140;SDS011;11739;54.750;9.124;2023-06-19T12:17:36;8.70;;;7.80;;
23140;SDS011;11739;54.750;9.124;2023-06-19T12:20:02;8.63;;;8.02;;
23140;SDS011;11739;54.750;9.124;2023-06-19T12:22:28;8.30;;;7.07;;
23140;SDS011;11739;54.750;9.124;2023-06-19T12:24:53;8.13;;;7.43;;
23140;SDS011;11739;54.750;9.124;2023-06-19T12:27:18;7.55;;;7.00;;
23140;SDS011;11739;54.750;9.124;2023-06-19T12:29:44;8.15;;;7.53;;
23140;SDS011;11739;54.750;9.124;2023-06-19T12:32:09;7.63;;;6.93;;
23140;SDS011;11739;54.750;9.124;2023-06-19T12:34:34;10.15;;;7.60;;
23140;SDS011;11739;54.750;9.124;2023-06-19T12:37:00;8.35;;;7.75;;
23140;SDS011;11739;54.750;9.124;2023-06-19T12:39:25;8.10;;;7.45;;
23140;SDS011;11739;54.750;9.124;2023-06-19T12:41:50;9.63;;;8.73;;
23140;SDS011;11739;54.750;9.124;2023-06-19T12:44:16;9.25;;;8.35;;
23140;SDS011;11739;54.750;9.124;2023-06-19T12:46:41;10.38;;;9.32;;
23140;SDS011;11739;54.750;9.124;2023-06-19T12:49:06;10.43;;;8.65;;
23140;SDS011;11739;54.750;9.124;2023-06-19T12:51:33;11.13;;;9.95;;
23140;SDS011;11739;54.750;9.124;2023-06-19T12:53:58;9.82;;;8.85;;
23140;SDS011;11739;54.750;9.124;2023-06-19T12:56:24;11.27;;;9.70;;
23140;SDS011;11739;54.750;9.124;2023-06-19T12:58:49;10.38;;;8.40;;
23140;SDS011;11739;54.750;9.124;2023-06-19T13:01:14;9.82;;;8.85;;
23140;SDS011;11739;54.750;9.124;2023-06-19T13:03:40;9.63;;;8.70;;
23140;SDS011;11739;54.750;9.124;2023-06-19T13:06:05;9.32;;;8.35;;
23140;SDS011;11739;54.750;9.124;2023-06-19T13:08:30;10.23;;;9.23;;
23140;SDS011;11739;54.750;9.124;2023-06-19T13:10:56;11.07;;;10.07;;
23140;SDS011;11739;54.750;9.124;2023-06-19T13:13:21;12.25;;;11.15;;
23140;SDS011;11739;54.750;9.124;2023-06-19T13:15:46;12.27;;;11.20;;
23140;SDS011;11739;54.750;9.124;2023-06-19T13:18:12;12.65;;;11.45;;
23140;SDS011;11739;54.750;9.124;2023-06-19T13:20:37;11.95;;;10.75;;
23140;SDS011;11739;54.750;9.124;2023-06-19T13:23:02;11.43;;;10.40;;
23140;SDS011;11739;54.750;9.124;2023-06-19T13:25:28;10.45;;;9.55;;
23140;SDS011;11739;54.750;9.124;2023-06-19T13:27:53;10.00;;;9.00;;
23140;SDS011;11739;54.750;9.124;2023-06-19T13:30:18;8.63;;;7.75;;
23140;SDS011;11739;54.750;9.124;2023-06-19T13:32:43;8.73;;;7.93;;
23140;SDS011;11739;54.750;9.124;2023-06-19T13:35:09;8.55;;;7.85;;
23140;SDS011;11739;54.750;9.124;2023-06-19T13:37:35;8.88;;;8.10;;
23140;SDS011;11739;54.750;9.124;2023-06-19T13:40:01;8.25;;;7.45;;
23140;SDS011;11739;54.750;9.124;2023-06-19T13:42:27;7.32;;;6.70;;
23140;SDS011;11739;54.750;9.124;2023-06-19T13:44:53;6.80;;;6.20;;
23140;SDS011;11739;54.750;9.124;2023-06-19T13:47:19;7.13;;;6.50;;
23140;SDS011;11739;54.750;9.124;2023-06-19T13:49:44;7.30;;;6.68;;
23140;SDS011;11739;54.750;9.124;2023-06-19T13:52:09;8.10;;;7.40;;
23140;SDS011;11739;54.750;9.124;2023-06-19T13:54:35;7.85;;;7.15;;
23140;SDS011;11739;54.750;9.124;2023-06-19T13:57:01;8.23;;;7.53;;
23140;SDS011;11739;54.750;9.124;2023-06-19T13:59:26;8.65;;;7.95;;
23140;SDS011;11739;54.750;9.124;2023-06-19T14:01:51;7.88;;;7.28;;
23140;SDS011;11739;54.750;9.124;2023-06-19T14:04:17;8.57;;;7.82;;
23140;SDS011;11739;54.750;9.124;2023-06-19T14:06:42;8.73;;;7.93;;
23140;SDS011;11739;54.750;9.124;2023-06-19T14:09:07;8.95;;;8.15;;
23140;SDS011;11739;54.750;9.124;2023-06-19T14:11:33;8.88;;;8.07;;
23140;SDS011;11739;54.750;9.124;2023-06-19T14:13:58;8.75;;;7.95;;
23140;SDS011;11739;54.750;9.124;2023-06-19T14:16:23;9.18;;;8.38;;
23140;SDS011;11739;54.750;9.124;2023-06-19T14:18:49;8.18;;;7.38;;
23140;SDS011;11739;54.750;9.124;2023-06-19T14:21:14;8.70;;;7.90;;
23140;SDS011;11739;54.750;9.124;2023-06-19T14:23:39;7.63;;;6.90;;
23140;SDS011;11739;54.750;9.124;2023-06-19T14:26:05;8.18;;;7.38;;
23140;SDS011;11739;54.750;9.124;2023-06-19T14:28:30;8.32;;;6.93;;
23140;SDS011;11739;54.750;9.124;2023-06-19T14:30:55;7.68;;;7.07;;
23140;SDS011;11739;54.750;9.124;2023-06-19T14:33:21;8.35;;;7.43;;
23140;SDS011;11739;54.750;9.124;2023-06-19T14:35:46;7.40;;;6.68;;
23140;SDS011;11739;54.750;9.124;2023-06-19T14:38:14;10.10;;;8.02;;
23140;SDS011;11739;54.750;9.124;2023-06-19T14:40:40;8.15;;;7.15;;
23140;SDS011;11739;54.750;9.124;2023-06-19T14:43:06;8.60;;;7.80;;
23140;SDS011;11739;54.750;9.124;2023-06-19T14:45:31;9.43;;;8.52;;